Aurora, Oregon
Current Conditions -  °F | °C
As of 11:53 PM on Sunday 21 Dec 2014 (Local Time) from KUAO Reporting Station
Overcast Overcast  
Wind Chill: 10°   Ceiling: 6000
Heat Index: 10°   Visibility: 10mi
Dew Point:   Wind: 8mph
Humidity: 96%   Direction: 190°S
Pressure: 30.19"   Gusts: NA
Location:  45.23°N, 122.76°W
Report Text: KUAO 220753Z AUTO 19007KT 10SM FEW005 SCT039 OVC060 10/09 A3019 RMK AO2 SLP225 T01000094 401390100
Loading
Personal Weather Stations






























Interactive Weather Map New forecast layout! Learn more

10-Day Weather Forecast

Advertisements
Track Severe Weather on mobile